createdAt,value
2023-04-23T00:01:28.569Z,22.07
2023-04-23T00:03:58.190Z,22.67
2023-04-23T00:06:26.845Z,21.73
2023-04-23T00:08:55.372Z,22.57
2023-04-23T00:11:22.659Z,22.23
2023-04-23T00:13:50.322Z,21.47
2023-04-23T00:16:19.896Z,19.73
2023-04-23T00:18:48.089Z,24.67
2023-04-23T00:21:15.196Z,23.73
2023-04-23T00:23:42.242Z,22.10
2023-04-23T00:26:09.359Z,21.80
2023-04-23T00:28:36.435Z,20.77
2023-04-23T00:31:03.676Z,22.60
2023-04-23T00:33:31.120Z,23.80
2023-04-23T00:35:58.040Z,22.57
2023-04-23T00:38:27.047Z,21.70
2023-04-23T00:40:54.349Z,22.70
2023-04-23T00:43:21.471Z,24.33
2023-04-23T00:45:49.384Z,21.13
2023-04-23T00:48:17.039Z,21.87
2023-04-23T00:50:44.093Z,24.63
2023-04-23T00:53:11.044Z,24.33
2023-04-23T00:55:38.289Z,22.67
2023-04-23T00:58:07.039Z,21.67
2023-04-23T01:00:42.615Z,21.33
2023-04-23T01:03:10.490Z,22.13
2023-04-23T01:05:37.576Z,22.23
2023-04-23T01:08:04.726Z,21.60
2023-04-23T01:10:32.789Z,21.30
2023-04-23T01:13:00.430Z,21.80
2023-04-23T01:15:27.584Z,19.17
2023-04-23T01:17:54.878Z,21.73
2023-04-23T01:20:22.235Z,21.40
2023-04-23T01:22:51.068Z,19.93
2023-04-23T01:25:18.151Z,18.57
2023-04-23T01:27:45.275Z,18.73
2023-04-23T01:30:13.062Z,20.43
2023-04-23T01:32:41.655Z,19.10
2023-04-23T01:35:10.689Z,22.00
2023-04-23T01:37:39.672Z,19.63
2023-04-23T01:40:08.634Z,18.97
2023-04-23T01:42:36.191Z,18.53
2023-04-23T01:45:03.860Z,19.33
2023-04-23T01:47:31.666Z,19.70
2023-04-23T01:49:58.797Z,18.33
2023-04-23T01:52:26.190Z,19.40
2023-04-23T01:54:53.155Z,17.47
2023-04-23T01:57:24.144Z,17.53
2023-04-23T01:59:51.129Z,18.23
2023-04-23T02:02:18.233Z,17.00
2023-04-23T02:04:48.741Z,17.53
2023-04-23T02:07:15.909Z,18.43
2023-04-23T02:09:42.968Z,18.13
2023-04-23T02:12:09.949Z,18.77
2023-04-23T02:14:36.893Z,18.20
2023-04-23T02:17:03.988Z,17.60
2023-04-23T02:19:34.547Z,17.13
2023-04-23T02:22:01.945Z,18.63
2023-04-23T02:24:28.954Z,16.07
2023-04-23T02:26:57.975Z,17.50
2023-04-23T02:29:25.172Z,17.53
2023-04-23T02:31:52.290Z,18.50
2023-04-23T02:34:19.238Z,18.07
2023-04-23T02:36:46.186Z,18.37
2023-04-23T02:39:13.108Z,17.23
2023-04-23T02:41:40.132Z,18.33
2023-04-23T02:44:07.153Z,18.27
2023-04-23T02:46:37.312Z,18.43
2023-04-23T02:49:05.099Z,17.10
2023-04-23T02:51:32.216Z,16.70
2023-04-23T02:53:59.574Z,18.23
2023-04-23T02:56:26.759Z,16.80
2023-04-23T02:58:54.124Z,17.23
2023-04-23T03:01:21.274Z,17.40
2023-04-23T03:03:48.936Z,16.67
2023-04-23T03:06:16.542Z,16.57
2023-04-23T03:08:43.508Z,15.57
2023-04-23T03:11:10.560Z,15.13
2023-04-23T03:13:37.717Z,15.27
2023-04-23T03:16:05.162Z,15.80
2023-04-23T03:18:32.513Z,16.87
2023-04-23T03:20:59.542Z,16.10
2023-04-23T03:23:26.554Z,16.87
2023-04-23T03:25:53.788Z,15.60
2023-04-23T03:28:20.764Z,17.67
2023-04-23T03:30:47.852Z,16.33
2023-04-23T03:33:14.963Z,17.77
2023-04-23T03:35:42.300Z,15.67
2023-04-23T03:38:16.144Z,15.80
2023-04-23T03:40:43.433Z,14.93
2023-04-23T03:43:11.699Z,15.53
2023-04-23T03:46:01.726Z,15.73
2023-04-23T03:48:31.672Z,15.47
2023-04-23T03:51:01.541Z,15.13
2023-04-23T03:53:40.397Z,14.67
2023-04-23T03:56:27.259Z,14.73
2023-04-23T03:59:14.652Z,14.37
2023-04-23T04:01:42.762Z,14.57
2023-04-23T04:04:10.032Z,14.23
2023-04-23T04:06:37.417Z,13.77
2023-04-23T04:09:04.347Z,16.23
2023-04-23T04:11:31.436Z,14.47
2023-04-23T04:13:58.321Z,14.17
2023-04-23T04:16:25.425Z,14.03
2023-04-23T04:18:54.388Z,13.63
2023-04-23T04:21:22.805Z,14.37
2023-04-23T04:23:49.709Z,15.33
2023-04-23T04:26:16.805Z,15.67
2023-04-23T04:28:45.431Z,14.37
2023-04-23T04:31:16.024Z,14.30
2023-04-23T04:33:43.409Z,14.17
2023-04-23T04:36:10.278Z,15.20
2023-04-23T04:38:38.039Z,14.87
2023-04-23T04:41:05.402Z,13.87
2023-04-23T04:43:34.584Z,13.73
2023-04-23T04:46:01.869Z,14.13
2023-04-23T04:48:29.002Z,16.43
2023-04-23T04:50:57.644Z,13.30
2023-04-23T04:53:24.786Z,15.30
2023-04-23T04:55:51.950Z,14.30
2023-04-23T04:58:18.999Z,12.57
2023-04-23T05:00:47.346Z,12.70
2023-04-23T05:03:14.728Z,13.83
2023-04-23T05:05:42.658Z,14.00
2023-04-23T05:08:09.765Z,13.10
2023-04-23T05:10:36.933Z,13.00
2023-04-23T05:13:04.031Z,14.50
2023-04-23T05:15:31.363Z,15.17
2023-04-23T05:17:58.368Z,14.10
2023-04-23T05:20:27.152Z,13.43
2023-04-23T05:22:54.960Z,14.13
2023-04-23T05:25:22.018Z,12.60
2023-04-23T05:27:48.951Z,13.43
2023-04-23T05:30:15.895Z,14.67
2023-04-23T05:32:42.976Z,12.53
2023-04-23T05:35:10.138Z,12.30
2023-04-23T05:37:37.042Z,14.00
2023-04-23T05:40:06.707Z,12.50
2023-04-23T05:42:36.367Z,12.33
2023-04-23T05:45:06.589Z,13.20
2023-04-23T05:47:35.023Z,12.27
2023-04-23T05:50:02.672Z,12.10
2023-04-23T05:52:33.382Z,11.03
2023-04-23T05:55:00.353Z,13.80
2023-04-23T05:57:27.255Z,12.30
2023-04-23T05:59:54.215Z,12.27
2023-04-23T06:02:23.955Z,12.10
2023-04-23T06:04:52.131Z,11.73
2023-04-23T06:07:20.023Z,12.07
2023-04-23T06:09:47.036Z,12.03
2023-04-23T06:12:14.009Z,12.57
2023-04-23T06:14:42.171Z,11.70
2023-04-23T06:17:09.315Z,11.97
2023-04-23T06:19:36.282Z,12.23
2023-04-23T06:22:03.344Z,13.47
2023-04-23T06:24:30.666Z,12.17
2023-04-23T06:26:57.834Z,12.07
2023-04-23T06:29:26.057Z,11.90
2023-04-23T06:32:01.270Z,10.83
2023-04-23T06:34:28.505Z,11.13
2023-04-23T06:36:55.641Z,10.30
2023-04-23T06:39:22.621Z,10.40
2023-04-23T06:41:49.669Z,10.00
2023-04-23T06:44:36.947Z,10.43
2023-04-23T06:47:05.283Z,12.20
2023-04-23T06:49:32.277Z,11.03
2023-04-23T06:51:59.261Z,7.93
2023-04-23T06:54:26.494Z,9.10
2023-04-23T06:56:53.953Z,8.50
2023-04-23T06:59:20.929Z,7.37
2023-04-23T07:01:52.224Z,8.23
2023-04-23T07:04:19.390Z,7.27
2023-04-23T07:06:46.467Z,8.27
2023-04-23T07:09:13.566Z,7.83
2023-04-23T07:11:40.913Z,7.50
2023-04-23T07:14:09.048Z,7.57
2023-04-23T07:16:36.205Z,5.77
2023-04-23T07:19:03.316Z,7.37
2023-04-23T07:21:30.352Z,6.80
2023-04-23T07:23:59.956Z,8.23
2023-04-23T07:26:27.883Z,7.00
2023-04-23T07:28:54.957Z,7.93
2023-04-23T07:31:22.362Z,5.93
2023-04-23T07:33:49.651Z,7.17
2023-04-23T07:36:16.690Z,8.57
2023-04-23T07:38:43.748Z,6.17
2023-04-23T07:41:10.792Z,5.03
2023-04-23T07:43:40.403Z,5.97
2023-04-23T07:46:07.944Z,6.27
2023-04-23T07:48:34.949Z,6.43
2023-04-23T07:51:02.786Z,6.27
2023-04-23T07:53:29.805Z,4.37
2023-04-23T07:55:57.969Z,3.40
2023-04-23T07:58:25.828Z,5.15
2023-04-23T08:00:53.251Z,5.55
2023-04-23T08:03:20.571Z,6.72
2023-04-23T08:05:47.975Z,3.67
2023-04-23T08:08:15.029Z,5.20
2023-04-23T08:10:42.459Z,5.57
2023-04-23T08:13:09.842Z,4.13
2023-04-23T08:15:37.295Z,5.70
2023-04-23T08:18:05.178Z,5.45
2023-04-23T08:20:32.666Z,4.75
2023-04-23T08:22:59.901Z,5.78
2023-04-23T08:25:27.424Z,3.67
2023-04-23T08:27:54.502Z,4.70
2023-04-23T08:30:21.659Z,3.25
2023-04-23T08:32:55.446Z,4.03
2023-04-23T08:35:23.937Z,4.05
2023-04-23T08:37:51.151Z,3.15
2023-04-23T08:40:18.526Z,4.93
2023-04-23T08:43:10.769Z,3.97
2023-04-23T08:45:41.683Z,5.18
2023-04-23T08:48:10.947Z,5.15
2023-04-23T08:50:44.595Z,3.75
2023-04-23T08:53:18.018Z,7.57
2023-04-23T08:55:47.266Z,3.67
2023-04-23T08:58:15.192Z,4.45
2023-04-23T09:00:43.113Z,4.18
2023-04-23T09:03:11.321Z,3.70
2023-04-23T09:05:39.250Z,4.50
2023-04-23T09:08:07.300Z,4.72
2023-04-23T09:10:40.807Z,2.63
2023-04-23T09:13:08.612Z,5.05
2023-04-23T09:15:39.943Z,2.78
2023-04-23T09:18:07.959Z,3.72
2023-04-23T09:20:37.199Z,4.55
2023-04-23T09:23:08.406Z,3.25
2023-04-23T09:25:36.631Z,4.50
2023-04-23T09:28:10.921Z,3.58
2023-04-23T09:30:45.030Z,4.50
2023-04-23T09:33:13.497Z,2.40
2023-04-23T09:35:43.192Z,4.13
2023-04-23T09:38:10.736Z,3.35
2023-04-23T09:40:38.810Z,4.30
2023-04-23T09:43:07.550Z,4.78
2023-04-23T09:45:35.520Z,3.67
2023-04-23T09:48:04.187Z,5.00
2023-04-23T09:50:40.293Z,4.75
2023-04-23T09:53:09.924Z,4.78
2023-04-23T09:55:39.490Z,3.25
2023-04-23T09:58:12.439Z,4.85
2023-04-23T10:00:40.800Z,2.90
2023-04-23T10:03:10.170Z,3.53
2023-04-23T10:06:00.330Z,2.85
2023-04-23T10:08:29.951Z,4.80
2023-04-23T10:11:06.510Z,4.00
2023-04-23T10:13:37.581Z,3.35
2023-04-23T10:16:20.634Z,3.22
2023-04-23T10:18:53.048Z,4.05
2023-04-23T10:21:23.639Z,3.38
2023-04-23T10:23:51.450Z,3.20
2023-04-23T10:26:22.756Z,2.70
2023-04-23T10:28:54.779Z,2.72
2023-04-23T10:31:23.480Z,2.58
2023-04-23T10:33:59.229Z,2.72
2023-04-23T10:36:27.892Z,2.47
2023-04-23T10:38:58.989Z,2.30
2023-04-23T10:41:37.784Z,3.15
2023-04-23T10:44:07.262Z,2.78
2023-04-23T10:46:37.150Z,2.40
2023-04-23T10:49:15.236Z,1.95
2023-04-23T10:52:17.996Z,2.63
2023-04-23T10:54:35.061Z,2.40
2023-04-23T10:57:07.259Z,3.92
2023-04-23T10:59:39.444Z,2.88
2023-04-23T11:02:10.052Z,3.60
2023-04-23T11:04:46.392Z,3.67
2023-04-23T11:07:14.317Z,2.95
2023-04-23T11:09:49.307Z,2.88
2023-04-23T11:12:28.061Z,4.30
2023-04-23T11:14:56.119Z,1.65
2023-04-23T11:17:44.411Z,3.88
2023-04-23T11:20:16.037Z,3.72
2023-04-23T11:22:45.314Z,4.10
2023-04-23T11:25:15.670Z,1.98
2023-04-23T11:27:44.608Z,4.10
2023-04-23T11:30:17.232Z,1.88
2023-04-23T11:32:50.805Z,4.05
2023-04-23T11:35:20.984Z,3.20
2023-04-23T11:37:49.470Z,3.45
2023-04-23T11:40:20.208Z,3.92
2023-04-23T11:42:55.000Z,2.92
2023-04-23T11:45:28.338Z,2.13
2023-04-23T11:47:58.739Z,5.05
2023-04-23T11:50:33.608Z,4.70
2023-04-23T11:53:11.217Z,2.75
2023-04-23T11:55:38.861Z,1.70
2023-04-23T11:58:05.848Z,2.60
2023-04-23T12:00:32.822Z,3.10
2023-04-23T12:03:02.762Z,3.53
2023-04-23T12:05:42.423Z,3.30
2023-04-23T12:08:13.132Z,3.75
2023-04-23T12:10:50.405Z,2.85
2023-04-23T12:13:27.407Z,1.80
2023-04-23T12:16:00.998Z,4.93
2023-04-23T12:18:33.036Z,2.33
2023-04-23T12:21:13.367Z,2.22
2023-04-23T12:23:45.065Z,3.53
2023-04-23T12:26:16.919Z,3.22
2023-04-23T12:28:50.923Z,2.08
2023-04-23T12:31:29.881Z,3.15
2023-04-23T12:34:07.891Z,2.63
2023-04-23T12:36:40.962Z,4.07
2023-04-23T12:39:26.629Z,3.00
2023-04-23T12:42:04.988Z,2.45
2023-04-23T12:44:35.317Z,2.25
2023-04-23T12:47:11.932Z,2.58
2023-04-23T12:49:40.842Z,3.47
2023-04-23T12:52:08.714Z,3.47
2023-04-23T12:54:39.533Z,2.10
2023-04-23T12:57:11.218Z,2.63
2023-04-23T12:59:38.548Z,1.35
2023-04-23T13:02:07.079Z,2.10
2023-04-23T13:04:36.522Z,2.80
2023-04-23T13:07:04.936Z,3.03
2023-04-23T13:09:31.979Z,2.22
2023-04-23T13:12:00.391Z,3.92
2023-04-23T13:14:28.544Z,2.75
2023-04-23T13:16:56.754Z,2.60
2023-04-23T13:19:24.718Z,2.53
2023-04-23T13:21:51.610Z,1.90
2023-04-23T13:24:18.578Z,3.03
2023-04-23T13:26:45.588Z,2.33
2023-04-23T13:29:12.644Z,2.40
2023-04-23T13:31:39.650Z,1.48
2023-04-23T13:34:06.785Z,2.03
2023-04-23T13:36:33.804Z,2.85
2023-04-23T13:39:00.985Z,1.85
2023-04-23T13:41:27.894Z,2.17
2023-04-23T13:43:54.983Z,1.92
2023-04-23T13:46:22.040Z,2.50
2023-04-23T13:48:48.983Z,2.80
2023-04-23T13:51:33.047Z,3.08
2023-04-23T13:54:01.715Z,3.58
2023-04-23T13:56:30.695Z,2.53
2023-04-23T13:59:18.194Z,3.40
2023-04-23T14:01:47.250Z,3.58
2023-04-23T14:04:14.427Z,2.15
2023-04-23T14:06:41.741Z,3.17
2023-04-23T14:09:08.639Z,2.30
2023-04-23T14:11:36.288Z,1.98
2023-04-23T14:14:03.684Z,4.70
2023-04-23T14:16:30.682Z,3.40
2023-04-23T14:18:58.479Z,2.22
2023-04-23T14:21:25.488Z,2.05
2023-04-23T14:24:10.019Z,5.05
2023-04-23T14:29:27.473Z,3.55
2023-04-23T14:31:54.477Z,3.20
2023-04-23T14:34:21.594Z,3.00
2023-04-23T14:36:49.407Z,2.65
2023-04-23T14:39:17.028Z,4.53
2023-04-23T14:41:44.647Z,2.50
2023-04-23T14:44:11.693Z,5.13
2023-04-23T14:46:38.721Z,6.20
2023-04-23T14:49:06.381Z,2.63
2023-04-23T14:51:33.653Z,2.97
2023-04-23T14:54:00.506Z,4.93
2023-04-23T14:56:27.594Z,3.53
2023-04-23T14:58:54.851Z,2.23
2023-04-23T15:01:22.101Z,3.08
2023-04-23T15:03:49.363Z,2.97
2023-04-23T15:06:17.207Z,3.13
2023-04-23T15:08:44.262Z,3.17
2023-04-23T15:11:15.923Z,3.93
2023-04-23T15:14:03.724Z,3.97
2023-04-23T15:19:11.972Z,3.10
2023-04-23T15:21:39.568Z,3.70
2023-04-23T15:24:07.838Z,5.80
2023-04-23T15:26:37.107Z,4.00
2023-04-23T15:29:08.569Z,2.57
2023-04-23T15:31:37.092Z,2.47
2023-04-23T15:34:06.164Z,3.13
2023-04-23T15:36:34.781Z,2.45
2023-04-23T15:39:02.904Z,2.97
2023-04-23T15:41:29.859Z,2.72
2023-04-23T15:43:56.918Z,3.20
2023-04-23T15:46:23.947Z,2.87
2023-04-23T15:48:50.837Z,3.50
2023-04-23T15:51:17.928Z,2.50
2023-04-23T15:53:44.895Z,4.20
2023-04-23T15:56:11.851Z,2.60
2023-04-23T15:58:38.802Z,3.87
2023-04-23T16:01:07.269Z,2.27
2023-04-23T16:03:34.882Z,1.70
2023-04-23T16:06:02.242Z,2.73
2023-04-23T16:08:29.256Z,2.53
2023-04-23T16:10:58.120Z,3.23
2023-04-23T16:13:26.837Z,2.83
2023-04-23T16:15:53.824Z,2.10
2023-04-23T16:18:21.090Z,2.50
2023-04-23T16:20:48.873Z,3.40
2023-04-23T16:23:16.263Z,3.10
2023-04-23T16:25:44.173Z,2.63
2023-04-23T16:28:13.839Z,2.30
2023-04-23T16:30:40.840Z,3.50
2023-04-23T16:33:09.399Z,4.15
2023-04-23T16:35:38.078Z,3.38
2023-04-23T16:38:05.097Z,3.27
2023-04-23T16:40:32.057Z,2.47
2023-04-23T16:42:59.491Z,2.60
2023-04-23T16:45:26.400Z,2.08
2023-04-23T16:47:53.520Z,4.82
2023-04-23T16:50:20.549Z,11.00
2023-04-23T16:52:47.586Z,3.95
2023-04-23T16:55:14.642Z,4.03
2023-04-23T16:57:41.667Z,2.40
2023-04-23T17:00:09.984Z,3.83
2023-04-23T17:02:37.976Z,2.55
2023-04-23T17:05:06.325Z,2.90
2023-04-23T17:07:33.350Z,1.95
2023-04-23T17:10:00.389Z,3.43
2023-04-23T17:12:27.409Z,2.65
2023-04-23T17:14:54.346Z,2.10
2023-04-23T17:17:21.379Z,1.73
2023-04-23T17:19:48.486Z,2.58
2023-04-23T17:22:15.537Z,2.03
2023-04-23T17:24:42.620Z,2.38
2023-04-23T17:27:10.034Z,1.77
2023-04-23T17:29:37.020Z,2.80
2023-04-23T17:32:04.413Z,2.70
2023-04-23T17:34:31.527Z,3.57
2023-04-23T17:36:58.816Z,2.60
2023-04-23T17:39:26.017Z,2.30
2023-04-23T17:41:53.423Z,3.47
2023-04-23T17:44:20.285Z,3.40
2023-04-23T17:46:47.612Z,2.33
2023-04-23T17:49:14.848Z,3.13
2023-04-23T17:51:41.849Z,2.63
2023-04-23T17:54:08.904Z,3.57
2023-04-23T17:56:35.964Z,2.73
2023-04-23T17:59:03.811Z,5.83
2023-04-23T18:01:31.590Z,3.23
2023-04-23T18:04:00.139Z,2.43
2023-04-23T18:06:27.659Z,2.83
2023-04-23T18:08:54.564Z,2.57
2023-04-23T18:11:21.751Z,2.07
2023-04-23T18:13:53.552Z,4.73
2023-04-23T18:16:20.675Z,4.30
2023-04-23T18:18:49.289Z,3.20
2023-04-23T18:21:17.874Z,2.70
2023-04-23T18:23:45.589Z,4.17
2023-04-23T18:26:12.602Z,4.07
2023-04-23T18:28:39.611Z,3.03
2023-04-23T18:31:06.672Z,4.77
2023-04-23T18:33:47.612Z,1.37
2023-04-23T18:36:29.503Z,1.60
2023-04-23T18:38:56.590Z,3.13
2023-04-23T18:41:23.640Z,1.20
2023-04-23T18:43:50.915Z,0.90
2023-04-23T18:46:18.103Z,1.87
2023-04-23T18:49:22.922Z,1.00
2023-04-23T18:51:53.149Z,1.20
2023-04-23T18:54:20.378Z,0.60
2023-04-23T18:56:48.032Z,1.10
2023-04-23T18:59:15.103Z,0.80
2023-04-23T19:01:44.547Z,1.20
2023-04-23T19:04:12.455Z,1.40
2023-04-23T19:06:39.660Z,0.60
2023-04-23T19:09:06.731Z,0.80
2023-04-23T19:11:38.026Z,0.50
2023-04-23T19:14:05.170Z,0.90
2023-04-23T19:16:32.588Z,0.83
2023-04-23T19:18:59.743Z,0.80
2023-04-23T19:21:27.845Z,0.20
2023-04-23T19:23:56.490Z,0.53
2023-04-23T19:26:23.643Z,0.20
2023-04-23T19:28:50.612Z,0.30
2023-04-23T19:31:17.760Z,0.30
2023-04-23T19:33:46.300Z,0.70
2023-04-23T19:36:14.074Z,0.20
2023-04-23T19:38:41.360Z,0.50
2023-04-23T19:41:08.499Z,0.40
2023-04-23T19:43:36.279Z,0.30
2023-04-23T19:46:03.318Z,0.40
2023-04-23T19:48:31.065Z,0.30
2023-04-23T19:50:59.459Z,1.60
2023-04-23T19:53:27.911Z,0.50
2023-04-23T19:55:54.843Z,0.50
2023-04-23T19:58:21.846Z,0.80
2023-04-23T20:00:48.927Z,0.63
2023-04-23T20:03:16.242Z,0.80
2023-04-23T20:05:44.795Z,0.67
2023-04-23T20:08:15.541Z,0.90
2023-04-23T20:10:43.322Z,1.23
2023-04-23T20:13:10.400Z,1.23
2023-04-23T20:15:37.609Z,1.13
2023-04-23T20:18:05.685Z,1.20
2023-04-23T20:20:33.925Z,2.23
2023-04-23T20:23:00.887Z,2.57
2023-04-23T20:25:28.030Z,2.00
2023-04-23T20:27:56.909Z,2.37
2023-04-23T20:30:24.189Z,2.40
2023-04-23T20:32:52.003Z,2.40
2023-04-23T20:35:18.922Z,2.40
2023-04-23T20:37:45.963Z,2.70
2023-04-23T20:40:14.433Z,2.37
2023-04-23T20:42:42.430Z,2.77
2023-04-23T20:45:13.032Z,2.20
2023-04-23T20:47:40.136Z,3.30
2023-04-23T20:50:08.437Z,2.70
2023-04-23T20:52:36.546Z,2.73
2023-04-23T20:55:03.663Z,2.97
2023-04-23T20:57:30.693Z,3.20
2023-04-23T20:59:57.562Z,3.13
2023-04-23T21:02:27.911Z,3.30
2023-04-23T21:04:54.889Z,3.50
2023-04-23T21:07:21.771Z,3.27
2023-04-23T21:09:48.755Z,3.83
2023-04-23T21:12:16.026Z,4.40
2023-04-23T21:14:43.269Z,4.30
2023-04-23T21:17:11.433Z,3.53
2023-04-23T21:19:38.391Z,4.17
2023-04-23T21:22:05.375Z,4.77
2023-04-23T21:24:32.396Z,3.30
2023-04-23T21:27:01.675Z,4.30
2023-04-23T21:29:28.896Z,4.40
2023-04-23T21:31:56.076Z,5.20
2023-04-23T21:34:23.198Z,10.10
2023-04-23T21:36:50.397Z,5.73
2023-04-23T21:39:17.426Z,6.60
2023-04-23T21:41:45.097Z,6.60
2023-04-23T21:44:12.219Z,8.70
2023-04-23T21:46:39.464Z,6.83
2023-04-23T21:49:08.037Z,5.50
2023-04-23T21:51:37.026Z,5.03
2023-04-23T21:54:05.862Z,4.50
2023-04-23T21:56:34.116Z,3.80
2023-04-23T21:59:01.617Z,2.73
2023-04-23T22:01:29.904Z,3.20
2023-04-23T22:03:58.272Z,4.30
2023-04-23T22:06:25.495Z,3.67
2023-04-23T22:08:53.458Z,3.97
2023-04-23T22:11:21.351Z,4.13
2023-04-23T22:13:48.419Z,3.37
2023-04-23T22:16:27.641Z,2.93
2023-04-23T22:18:57.612Z,3.90
2023-04-23T22:21:24.679Z,3.40
2023-04-23T22:23:51.784Z,3.10
2023-04-23T22:26:18.789Z,3.23
2023-04-23T22:28:45.847Z,2.70
2023-04-23T22:31:12.961Z,2.80
2023-04-23T22:33:39.916Z,3.23
2023-04-23T22:36:07.308Z,2.43
2023-04-23T22:38:35.161Z,2.57
2023-04-23T22:41:02.336Z,2.47
2023-04-23T22:43:29.567Z,3.03
2023-04-23T22:45:56.990Z,2.40
2023-04-23T22:48:24.242Z,2.80
2023-04-23T22:50:51.377Z,3.07
2023-04-23T22:53:19.452Z,2.80
2023-04-23T22:55:47.040Z,2.30
2023-04-23T22:58:14.403Z,2.33
2023-04-23T23:00:41.758Z,2.23
2023-04-23T23:03:09.282Z,2.50
2023-04-23T23:05:36.760Z,2.23
2023-04-23T23:08:04.012Z,2.10
2023-04-23T23:10:31.724Z,2.10
2023-04-23T23:12:58.867Z,1.80
2023-04-23T23:15:25.835Z,2.17
2023-04-23T23:17:52.789Z,2.00
2023-04-23T23:20:20.252Z,2.50
2023-04-23T23:22:47.353Z,3.60
2023-04-23T23:25:14.651Z,2.87
2023-04-23T23:27:41.795Z,4.23
2023-04-23T23:30:09.855Z,4.43
2023-04-23T23:32:37.179Z,5.73
2023-04-23T23:35:04.872Z,7.20
2023-04-23T23:37:32.133Z,5.43
2023-04-23T23:39:59.281Z,6.63
2023-04-23T23:42:26.285Z,7.37
2023-04-23T23:44:53.252Z,8.67
2023-04-23T23:47:20.456Z,6.10
2023-04-23T23:49:48.338Z,7.90
2023-04-23T23:52:15.495Z,6.77
2023-04-23T23:54:42.530Z,9.30
2023-04-23T23:57:10.105Z,7.57
2023-04-23T23:59:37.130Z,7.87
